createdAt,value
2023-03-24T00:00:31.018Z,14.59
2023-03-24T00:03:01.466Z,14.54
2023-03-24T00:05:30.507Z,14.50
2023-03-24T00:08:05.236Z,14.52
2023-03-24T00:10:34.735Z,14.49
2023-03-24T00:13:02.520Z,14.43
2023-03-24T00:15:30.276Z,14.09
2023-03-24T00:17:58.557Z,13.74
2023-03-24T00:20:26.150Z,13.63
2023-03-24T00:22:59.209Z,13.63
2023-03-24T00:25:29.374Z,13.67
2023-03-24T00:27:57.537Z,13.71
2023-03-24T00:30:25.346Z,13.69
2023-03-24T00:32:53.110Z,13.66
2023-03-24T00:35:20.493Z,13.65
2023-03-24T00:37:47.205Z,13.70
2023-03-24T00:40:17.407Z,13.68
2023-03-24T00:42:46.276Z,13.64
2023-03-24T00:45:18.292Z,13.59
2023-03-24T00:47:46.634Z,13.56
2023-03-24T00:50:15.917Z,13.59
2023-03-24T00:52:44.361Z,13.66
2023-03-24T00:55:16.138Z,13.75
2023-03-24T00:57:50.653Z,13.77
2023-03-24T01:00:24.263Z,13.77
2023-03-24T01:02:53.829Z,13.77
2023-03-24T01:05:23.472Z,13.71
2023-03-24T01:07:56.398Z,13.65
2023-03-24T01:10:27.003Z,13.65
2023-03-24T01:12:56.271Z,13.67
2023-03-24T01:15:26.599Z,13.59
2023-03-24T01:17:54.938Z,13.47
2023-03-24T01:20:23.844Z,13.36
2023-03-24T01:22:51.745Z,13.25
2023-03-24T01:25:21.430Z,13.25
2023-03-24T01:27:50.258Z,13.27
2023-03-24T01:30:19.945Z,13.31
2023-03-24T01:32:48.261Z,13.36
2023-03-24T01:35:16.475Z,13.33
2023-03-24T01:37:44.908Z,13.29
2023-03-24T01:40:21.134Z,13.28
2023-03-24T01:42:49.448Z,13.32
2023-03-24T01:45:54.029Z,13.37
2023-03-24T01:48:29.893Z,13.36
2023-03-24T01:51:12.989Z,13.34
2023-03-24T01:53:44.477Z,13.31
2023-03-24T01:56:12.247Z,13.28
2023-03-24T01:58:42.721Z,13.19
2023-03-24T02:01:11.014Z,13.04
2023-03-24T02:03:40.297Z,13.00
2023-03-24T02:06:08.627Z,12.97
2023-03-24T02:08:38.644Z,12.87
2023-03-24T02:11:06.682Z,12.83
2023-03-24T02:13:35.145Z,12.78
2023-03-24T02:16:14.725Z,12.82
2023-03-24T02:18:52.673Z,12.86
2023-03-24T02:21:44.689Z,12.97
2023-03-24T02:24:49.065Z,12.99
2023-03-24T02:27:37.459Z,12.99
2023-03-24T02:30:10.676Z,12.93
2023-03-24T02:33:01.417Z,12.85
2023-03-24T02:35:30.976Z,12.72
2023-03-24T02:38:26.585Z,12.66
2023-03-24T02:41:11.508Z,12.72
2023-03-24T02:43:58.723Z,12.78
2023-03-24T02:46:56.775Z,12.87
2023-03-24T02:49:35.280Z,12.91
2023-03-24T02:52:05.446Z,12.94
2023-03-24T02:54:58.857Z,13.00
2023-03-24T02:57:45.245Z,13.01
2023-03-24T03:00:35.354Z,13.01
2023-03-24T03:03:11.493Z,13.08
2023-03-24T03:06:18.351Z,12.93
2023-03-24T03:08:56.561Z,12.75
2023-03-24T03:11:24.601Z,12.68
2023-03-24T03:13:55.825Z,12.67
2023-03-24T03:16:25.626Z,12.64
2023-03-24T03:18:56.174Z,12.60
2023-03-24T03:21:24.896Z,12.40
2023-03-24T03:23:59.481Z,12.34
2023-03-24T03:26:32.817Z,12.34
2023-03-24T03:29:25.691Z,12.29
2023-03-24T03:31:59.782Z,12.35
2023-03-24T03:34:32.017Z,12.29
2023-03-24T03:37:31.420Z,12.24
2023-03-24T03:40:00.081Z,12.29
2023-03-24T03:42:27.847Z,12.35
2023-03-24T03:44:55.686Z,12.38
2023-03-24T03:47:24.298Z,12.35
2023-03-24T03:49:51.528Z,12.30
2023-03-24T03:52:18.707Z,12.33
2023-03-24T03:54:45.408Z,12.34
2023-03-24T03:57:13.927Z,12.39
2023-03-24T03:59:41.905Z,12.34
2023-03-24T04:02:28.310Z,12.38
2023-03-24T04:05:06.814Z,12.39
2023-03-24T04:07:44.148Z,12.44
2023-03-24T04:10:41.959Z,12.51
2023-03-24T04:13:15.398Z,12.55
2023-03-24T04:15:44.943Z,12.61
2023-03-24T04:18:25.556Z,12.54
2023-03-24T04:20:57.865Z,12.43
2023-03-24T04:23:33.925Z,12.35
2023-03-24T04:26:16.370Z,12.21
2023-03-24T04:29:05.067Z,12.14
2023-03-24T04:31:40.428Z,12.25
2023-03-24T04:34:29.416Z,12.33
2023-03-24T04:37:13.780Z,12.28
2023-03-24T04:39:42.789Z,12.21
2023-03-24T04:42:23.438Z,12.15
2023-03-24T04:45:03.228Z,12.10
2023-03-24T04:47:32.021Z,12.02
2023-03-24T04:50:03.563Z,11.95
2023-03-24T04:52:31.186Z,12.06
2023-03-24T04:54:58.328Z,12.12
2023-03-24T04:57:27.937Z,12.19
2023-03-24T04:59:55.816Z,12.24
2023-03-24T05:02:24.114Z,12.28
2023-03-24T05:04:51.587Z,12.30
2023-03-24T05:07:19.747Z,12.34
2023-03-24T05:09:47.440Z,12.35
2023-03-24T05:12:14.890Z,12.33
2023-03-24T05:14:43.089Z,12.27
2023-03-24T05:17:10.732Z,12.17
2023-03-24T05:19:39.182Z,11.94
2023-03-24T05:22:07.509Z,11.79
2023-03-24T05:24:37.854Z,11.69
2023-03-24T05:27:05.818Z,11.63
2023-03-24T05:29:33.904Z,11.56
2023-03-24T05:32:01.825Z,11.54
2023-03-24T05:34:30.015Z,11.59
2023-03-24T05:36:57.467Z,11.52
2023-03-24T05:39:25.544Z,11.45
2023-03-24T05:41:53.594Z,11.50
2023-03-24T05:44:21.621Z,11.61
2023-03-24T05:46:50.357Z,11.69
2023-03-24T05:49:18.565Z,11.78
2023-03-24T05:52:06.027Z,11.87
2023-03-24T05:54:34.100Z,11.96
2023-03-24T05:57:02.073Z,12.08
2023-03-24T05:59:30.442Z,12.16
2023-03-24T06:01:58.488Z,12.29
2023-03-24T06:04:29.944Z,12.38
2023-03-24T06:07:18.368Z,12.46
2023-03-24T06:09:47.651Z,12.46
2023-03-24T06:12:16.340Z,12.48
2023-03-24T06:14:45.419Z,12.65
2023-03-24T06:17:15.162Z,12.89
2023-03-24T06:19:50.055Z,13.17
2023-03-24T06:22:19.109Z,13.35
2023-03-24T06:24:47.992Z,13.45
2023-03-24T06:27:15.751Z,13.52
2023-03-24T06:29:43.710Z,13.61
2023-03-24T06:32:11.427Z,13.65
2023-03-24T06:34:40.510Z,13.73
2023-03-24T06:37:08.027Z,13.78
2023-03-24T06:39:36.810Z,13.79
2023-03-24T06:42:05.265Z,13.90
2023-03-24T06:44:33.099Z,13.93
2023-03-24T06:47:00.561Z,14.05
2023-03-24T06:49:28.230Z,14.12
2023-03-24T06:51:56.297Z,14.19
2023-03-24T06:54:24.403Z,14.30
2023-03-24T06:56:53.051Z,14.43
2023-03-24T06:59:23.810Z,14.48
2023-03-24T07:02:14.377Z,14.58
2023-03-24T07:04:43.073Z,14.62
2023-03-24T07:07:38.168Z,14.66
2023-03-24T07:09:58.448Z,14.85
2023-03-24T07:12:26.490Z,14.99
2023-03-24T07:14:53.918Z,15.14
2023-03-24T07:17:25.342Z,15.31
2023-03-24T07:19:53.275Z,15.43
2023-03-24T07:22:20.927Z,15.49
2023-03-24T07:24:48.962Z,15.63
2023-03-24T07:27:16.943Z,15.78
2023-03-24T07:29:47.980Z,16.06
2023-03-24T07:32:16.164Z,16.26
2023-03-24T07:34:46.050Z,16.44
2023-03-24T07:37:13.597Z,16.66
2023-03-24T07:39:41.355Z,16.81
2023-03-24T07:42:11.039Z,16.88
2023-03-24T07:44:39.943Z,16.96
2023-03-24T07:47:11.380Z,17.05
2023-03-24T07:49:39.320Z,17.07
2023-03-24T07:52:07.214Z,17.07
2023-03-24T07:54:34.835Z,17.10
2023-03-24T07:57:03.040Z,17.10
2023-03-24T07:59:30.498Z,17.09
2023-03-24T08:01:59.894Z,17.12
2023-03-24T08:04:29.036Z,17.16
2023-03-24T08:06:57.278Z,17.08
2023-03-24T08:09:25.095Z,17.09
2023-03-24T08:11:53.158Z,17.16
2023-03-24T08:14:21.216Z,17.18
2023-03-24T08:16:48.979Z,17.26
2023-03-24T08:19:16.530Z,17.21
2023-03-24T08:21:44.264Z,17.20
2023-03-24T08:24:12.007Z,17.19
2023-03-24T08:26:40.267Z,17.25
2023-03-24T08:29:08.302Z,17.38
2023-03-24T08:31:36.741Z,17.49
2023-03-24T08:34:04.810Z,17.50
2023-03-24T08:36:32.982Z,17.54
2023-03-24T08:39:01.499Z,17.63
2023-03-24T08:41:37.134Z,17.82
2023-03-24T08:44:06.708Z,17.98
2023-03-24T08:46:34.544Z,17.89
2023-03-24T08:49:02.705Z,17.93
2023-03-24T08:51:34.509Z,18.01
2023-03-24T08:54:03.922Z,18.04
2023-03-24T08:56:31.926Z,18.01
2023-03-24T08:58:59.737Z,18.09
2023-03-24T09:01:28.433Z,18.07
2023-03-24T09:03:56.331Z,18.07
2023-03-24T09:06:24.542Z,18.18
2023-03-24T09:08:52.576Z,18.28
2023-03-24T09:11:20.969Z,18.26
2023-03-24T09:13:49.104Z,18.21
2023-03-24T09:16:16.890Z,18.38
2023-03-24T09:18:44.616Z,18.54
2023-03-24T09:21:12.359Z,18.66
2023-03-24T09:23:40.495Z,18.76
2023-03-24T09:26:11.650Z,18.76
2023-03-24T09:28:39.710Z,18.86
2023-03-24T09:31:07.817Z,18.94
2023-03-24T09:33:35.367Z,18.92
2023-03-24T09:36:03.178Z,19.04
2023-03-24T09:38:31.324Z,19.02
2023-03-24T09:41:03.036Z,19.05
2023-03-24T09:43:54.499Z,19.16
2023-03-24T09:46:34.766Z,19.21
2023-03-24T09:49:01.461Z,19.05
2023-03-24T09:51:41.476Z,19.13
2023-03-24T09:54:08.154Z,19.19
2023-03-24T09:56:37.982Z,19.22
2023-03-24T09:59:07.313Z,19.19
2023-03-24T10:01:35.417Z,19.16
2023-03-24T10:04:03.311Z,19.02
2023-03-24T10:06:38.637Z,18.91
2023-03-24T10:09:20.408Z,18.72
2023-03-24T10:11:47.266Z,18.70
2023-03-24T10:14:27.117Z,18.75
2023-03-24T10:17:01.702Z,18.95
2023-03-24T10:19:42.766Z,19.28
2023-03-24T10:22:16.882Z,19.62
2023-03-24T10:25:08.293Z,19.98
2023-03-24T10:27:42.701Z,19.91
2023-03-24T10:30:24.310Z,20.02
2023-03-24T10:32:52.421Z,19.94
2023-03-24T10:35:28.681Z,20.08
2023-03-24T10:37:58.768Z,19.87
2023-03-24T10:40:33.201Z,19.74
2023-03-24T10:43:07.230Z,19.83
2023-03-24T10:45:39.293Z,20.02
2023-03-24T10:48:07.740Z,20.07
2023-03-24T10:50:36.003Z,20.02
2023-03-24T10:53:09.940Z,20.19
2023-03-24T10:55:39.004Z,20.19
2023-03-24T10:58:12.604Z,20.61
2023-03-24T11:00:42.700Z,21.00
2023-03-24T11:03:12.773Z,21.54
2023-03-24T11:05:40.325Z,22.05
2023-03-24T11:08:30.097Z,22.69
2023-03-24T11:10:57.324Z,23.13
2023-03-24T11:13:25.117Z,23.38
2023-03-24T11:16:17.206Z,23.36
2023-03-24T11:19:23.692Z,23.26
2023-03-24T11:21:52.007Z,23.66
2023-03-24T11:24:21.227Z,23.44
2023-03-24T11:27:01.839Z,23.22
2023-03-24T11:29:33.460Z,23.42
2023-03-24T11:32:05.902Z,23.29
2023-03-24T11:34:38.597Z,22.66
2023-03-24T11:37:06.348Z,22.40
2023-03-24T11:39:34.234Z,22.74
2023-03-24T11:42:13.500Z,22.77
2023-03-24T11:44:53.480Z,22.40
2023-03-24T11:47:40.426Z,22.21
2023-03-24T11:50:10.549Z,22.05
2023-03-24T11:53:04.283Z,21.96
2023-03-24T11:55:49.670Z,21.81
2023-03-24T11:58:35.635Z,21.89
2023-03-24T12:01:07.738Z,22.21
2023-03-24T12:04:04.536Z,22.48
2023-03-24T12:06:41.351Z,22.29
2023-03-24T12:09:14.796Z,22.92
2023-03-24T12:11:44.789Z,23.23
2023-03-24T12:14:12.681Z,23.10
2023-03-24T12:17:03.760Z,23.44
2023-03-24T12:19:33.228Z,23.34
2023-03-24T12:22:03.094Z,23.65
2023-03-24T12:24:38.514Z,23.95
2023-03-24T12:27:07.813Z,24.12
2023-03-24T12:30:08.659Z,23.90
2023-03-24T12:32:59.382Z,24.21
2023-03-24T12:35:44.917Z,24.03
2023-03-24T12:38:33.540Z,24.34
2023-03-24T12:41:15.854Z,24.42
2023-03-24T12:43:43.220Z,24.03
2023-03-24T12:46:47.790Z,24.66
2023-03-24T12:49:32.440Z,24.63
2023-03-24T12:52:33.307Z,25.28
2023-03-24T12:55:06.234Z,25.55
2023-03-24T12:57:41.446Z,26.11
2023-03-24T13:00:16.211Z,26.35
2023-03-24T13:02:46.210Z,26.21
2023-03-24T13:05:19.990Z,26.18
2023-03-24T13:07:54.381Z,25.85
2023-03-24T13:10:27.969Z,26.39
2023-03-24T13:13:11.092Z,26.75
2023-03-24T13:16:04.126Z,26.11
2023-03-24T13:18:39.783Z,26.42
2023-03-24T13:21:15.311Z,26.75
2023-03-24T13:24:09.891Z,26.66
2023-03-24T13:26:58.698Z,26.48
2023-03-24T13:29:45.597Z,26.65
2023-03-24T13:32:24.591Z,27.05
2023-03-24T13:35:16.243Z,27.72
2023-03-24T13:37:47.114Z,28.02
2023-03-24T13:40:27.468Z,28.34
2023-03-24T13:42:56.986Z,28.05
2023-03-24T13:45:41.269Z,28.02
2023-03-24T13:48:11.039Z,27.98
2023-03-24T13:51:11.417Z,27.99
2023-03-24T13:53:51.544Z,28.32
2023-03-24T13:56:35.741Z,28.24
2023-03-24T13:59:02.942Z,28.27
2023-03-24T14:01:41.336Z,28.77
2023-03-24T14:04:43.972Z,28.49
2023-03-24T14:07:40.755Z,28.19
2023-03-24T14:10:21.912Z,27.91
2023-03-24T14:13:12.006Z,28.20
2023-03-24T14:15:45.493Z,28.50
2023-03-24T14:18:24.253Z,28.66
2023-03-24T14:20:57.195Z,28.79
2023-03-24T14:23:25.925Z,28.56
2023-03-24T14:25:56.292Z,28.53
2023-03-24T14:28:27.912Z,28.68
2023-03-24T14:31:02.809Z,28.33
2023-03-24T14:33:31.169Z,27.74
2023-03-24T14:36:02.950Z,27.93
2023-03-24T14:38:30.749Z,27.30
2023-03-24T14:41:00.535Z,27.00
2023-03-24T14:43:38.198Z,26.79
2023-03-24T14:46:35.445Z,26.23
2023-03-24T14:49:26.434Z,26.18
2023-03-24T14:51:58.394Z,26.31
2023-03-24T14:54:57.026Z,25.92
2023-03-24T14:57:35.756Z,26.30
2023-03-24T15:00:15.671Z,26.69
2023-03-24T15:02:45.402Z,27.01
2023-03-24T15:05:18.212Z,27.14
2023-03-24T15:07:48.563Z,27.14
2023-03-24T15:10:18.022Z,27.53
2023-03-24T15:12:50.190Z,27.21
2023-03-24T15:15:24.367Z,26.39
2023-03-24T15:17:51.755Z,25.72
2023-03-24T15:20:24.918Z,24.83
2023-03-24T15:23:01.640Z,24.15
2023-03-24T15:25:29.148Z,23.63
2023-03-24T15:27:57.765Z,23.48
2023-03-24T15:30:25.312Z,23.06
2023-03-24T15:32:52.980Z,23.09
2023-03-24T15:35:22.387Z,23.11
2023-03-24T15:38:21.456Z,23.01
2023-03-24T15:41:00.538Z,23.06
2023-03-24T15:43:28.715Z,22.94
2023-03-24T15:46:08.868Z,22.80
2023-03-24T15:48:38.930Z,22.80
2023-03-24T15:51:10.297Z,22.66
2023-03-24T15:53:52.394Z,22.54
2023-03-24T15:56:20.708Z,22.53
2023-03-24T15:59:15.205Z,22.27
2023-03-24T16:01:45.160Z,22.26
2023-03-24T16:04:17.535Z,22.26
2023-03-24T16:06:52.858Z,22.18
2023-03-24T16:09:22.330Z,22.11
2023-03-24T16:11:50.192Z,22.06
2023-03-24T16:14:24.160Z,22.02
2023-03-24T16:17:18.935Z,22.05
2023-03-24T16:19:47.021Z,22.02
2023-03-24T16:22:14.943Z,22.01
2023-03-24T16:24:42.440Z,21.86
2023-03-24T16:27:12.383Z,21.81
2023-03-24T16:29:40.233Z,21.61
2023-03-24T16:32:08.863Z,21.55
2023-03-24T16:34:37.231Z,21.47
2023-03-24T16:37:05.071Z,21.46
2023-03-24T16:39:32.874Z,21.44
2023-03-24T16:42:00.704Z,21.35
2023-03-24T16:44:28.620Z,21.36
2023-03-24T16:46:55.428Z,21.37
2023-03-24T16:49:24.381Z,21.26
2023-03-24T16:51:53.042Z,21.30
2023-03-24T16:54:21.178Z,21.31
2023-03-24T16:56:49.015Z,21.32
2023-03-24T16:59:17.091Z,21.38
2023-03-24T17:01:45.770Z,21.45
2023-03-24T17:04:16.254Z,21.42
2023-03-24T17:06:44.464Z,21.40
2023-03-24T17:09:12.731Z,21.37
2023-03-24T17:11:43.388Z,21.31
2023-03-24T17:14:12.382Z,21.22
2023-03-24T17:17:04.594Z,21.15
2023-03-24T17:19:33.113Z,21.10
2023-03-24T17:22:21.915Z,21.02
2023-03-24T17:24:57.588Z,20.96
2023-03-24T17:27:25.234Z,20.92
2023-03-24T17:29:53.157Z,20.89
2023-03-24T17:32:22.399Z,20.83
2023-03-24T17:34:50.447Z,20.77
2023-03-24T17:37:18.546Z,20.69
2023-03-24T17:39:46.458Z,20.64
2023-03-24T17:42:14.237Z,20.63
2023-03-24T17:44:42.739Z,20.63
2023-03-24T17:49:51.748Z,20.54
2023-03-24T17:52:19.858Z,20.47
2023-03-24T17:54:47.742Z,20.46
2023-03-24T17:57:15.616Z,20.41
2023-03-24T17:59:43.303Z,20.36
2023-03-24T18:02:11.224Z,20.32
2023-03-24T18:04:38.926Z,20.24
2023-03-24T18:07:06.623Z,20.14
2023-03-24T18:09:34.116Z,20.08
2023-03-24T18:12:02.354Z,20.03
2023-03-24T18:14:30.241Z,19.95
2023-03-24T18:16:57.987Z,19.92
2023-03-24T18:19:26.084Z,19.93
2023-03-24T18:21:54.703Z,19.93
2023-03-24T18:24:22.371Z,19.86
2023-03-24T18:26:50.511Z,19.82
2023-03-24T18:29:18.210Z,19.78
2023-03-24T18:31:46.241Z,19.74
2023-03-24T18:34:14.209Z,19.68
2023-03-24T18:36:42.223Z,19.64
2023-03-24T18:39:09.683Z,19.59
2023-03-24T18:41:37.922Z,19.55
2023-03-24T18:44:10.211Z,19.52
2023-03-24T18:46:39.066Z,19.49
2023-03-24T18:49:07.250Z,19.49
2023-03-24T18:51:35.613Z,19.48
2023-03-24T18:54:06.315Z,19.50
2023-03-24T18:56:34.038Z,19.46
2023-03-24T18:59:02.946Z,19.44
2023-03-24T19:01:33.151Z,19.37
2023-03-24T19:04:01.035Z,19.35
2023-03-24T19:06:31.600Z,19.33
2023-03-24T19:08:59.519Z,19.32
2023-03-24T19:11:27.615Z,19.31
2023-03-24T19:13:56.931Z,19.28
2023-03-24T19:16:24.961Z,19.29
2023-03-24T19:18:52.762Z,19.27
2023-03-24T19:21:23.172Z,19.22
2023-03-24T19:23:52.896Z,19.23
2023-03-24T19:26:21.058Z,19.20
2023-03-24T19:28:48.638Z,19.08
2023-03-24T19:31:19.703Z,18.91
2023-03-24T19:33:47.530Z,18.80
2023-03-24T19:36:15.709Z,18.77
2023-03-24T19:38:44.212Z,18.74
2023-03-24T19:41:13.083Z,18.67
2023-03-24T19:43:39.851Z,18.67
2023-03-24T19:46:07.905Z,18.58
2023-03-24T19:48:35.710Z,18.56
2023-03-24T19:51:03.587Z,18.50
2023-03-24T19:53:30.829Z,18.40
2023-03-24T19:55:58.845Z,18.33
2023-03-24T19:58:27.766Z,18.23
2023-03-24T20:00:55.516Z,18.21
2023-03-24T20:03:23.537Z,18.24
2023-03-24T20:05:51.567Z,18.19
2023-03-24T20:08:19.817Z,18.16
2023-03-24T20:10:47.370Z,18.11
2023-03-24T20:13:15.368Z,18.08
2023-03-24T20:15:43.272Z,18.07
2023-03-24T20:18:15.161Z,18.11
2023-03-24T20:20:43.154Z,18.04
2023-03-24T20:23:10.781Z,18.02
2023-03-24T20:26:04.320Z,17.97
2023-03-24T20:28:31.437Z,17.93
2023-03-24T20:31:02.711Z,17.89
2023-03-24T20:33:30.528Z,17.85
2023-03-24T20:35:58.827Z,17.77
2023-03-24T20:38:27.342Z,17.72
2023-03-24T20:41:00.543Z,17.63
2023-03-24T20:43:28.415Z,17.56
2023-03-24T20:45:59.688Z,17.50
2023-03-24T20:48:27.791Z,17.46
2023-03-24T20:50:55.833Z,17.40
2023-03-24T20:53:24.998Z,17.38
2023-03-24T20:55:59.060Z,17.32
2023-03-24T20:58:27.543Z,17.34
2023-03-24T21:00:56.196Z,17.39
2023-03-24T21:03:24.299Z,17.49
2023-03-24T21:05:55.351Z,17.55
2023-03-24T21:08:23.616Z,17.59
2023-03-24T21:10:55.235Z,17.55
2023-03-24T21:13:23.497Z,17.47
2023-03-24T21:15:51.704Z,17.45
2023-03-24T21:18:20.162Z,17.44
2023-03-24T21:21:13.765Z,17.48
2023-03-24T21:23:42.099Z,17.50
2023-03-24T21:26:24.312Z,17.49
2023-03-24T21:28:52.947Z,17.49
2023-03-24T21:31:24.588Z,17.50
2023-03-24T21:33:52.923Z,17.46
2023-03-24T21:36:22.043Z,17.44
2023-03-24T21:38:49.844Z,17.42
2023-03-24T21:41:19.110Z,17.36
2023-03-24T21:43:47.007Z,17.33
2023-03-24T21:46:37.488Z,17.40
2023-03-24T21:49:05.467Z,17.39
2023-03-24T21:51:42.859Z,17.37
2023-03-24T21:54:11.289Z,17.43
2023-03-24T21:56:38.825Z,17.40
2023-03-24T21:59:06.533Z,17.39
2023-03-24T22:01:40.560Z,17.38
2023-03-24T22:04:08.758Z,17.35
2023-03-24T22:06:39.518Z,17.39
2023-03-24T22:09:08.262Z,17.39
2023-03-24T22:11:35.898Z,17.38
2023-03-24T22:14:03.815Z,17.35
2023-03-24T22:16:33.107Z,17.35
2023-03-24T22:19:01.871Z,17.44
2023-03-24T22:21:32.277Z,17.43
2023-03-24T22:24:00.282Z,17.45
2023-03-24T22:26:28.085Z,17.40
2023-03-24T22:28:56.285Z,17.29
2023-03-24T22:31:24.656Z,17.27
2023-03-24T22:34:03.768Z,17.34
2023-03-24T22:36:31.852Z,17.28
2023-03-24T22:38:59.943Z,17.30
2023-03-24T22:41:28.174Z,17.33
2023-03-24T22:43:55.836Z,17.34
2023-03-24T22:46:24.691Z,17.34
2023-03-24T22:48:52.568Z,17.28
2023-03-24T22:51:20.867Z,17.18
2023-03-24T22:53:51.341Z,17.09
2023-03-24T22:56:19.047Z,17.08
2023-03-24T22:58:47.229Z,17.02
2023-03-24T23:01:15.568Z,16.95
2023-03-24T23:03:44.066Z,16.87
2023-03-24T23:06:11.864Z,16.85
2023-03-24T23:08:40.190Z,16.75
2023-03-24T23:11:08.593Z,16.74
2023-03-24T23:13:36.785Z,16.72
2023-03-24T23:16:06.052Z,16.67
2023-03-24T23:18:34.269Z,16.58
2023-03-24T23:21:03.345Z,16.48
2023-03-24T23:23:31.705Z,16.38
2023-03-24T23:25:59.502Z,16.34
2023-03-24T23:28:28.238Z,16.32
2023-03-24T23:30:56.117Z,16.25
2023-03-24T23:33:24.395Z,16.15
2023-03-24T23:35:56.187Z,16.14
2023-03-24T23:38:23.846Z,16.16
2023-03-24T23:40:51.024Z,16.22
2023-03-24T23:43:18.833Z,16.26
2023-03-24T23:45:46.889Z,16.29
2023-03-24T23:48:14.594Z,16.27
2023-03-24T23:50:46.328Z,16.23
2023-03-24T23:53:14.371Z,16.17
2023-03-24T23:55:41.897Z,16.20
2023-03-24T23:58:09.476Z,16.21
